sensor_id;sensor_type;location;lat;lon;timestamp;pressure;altitude;pressure_sealevel;temperature;humidity
38197;BME280;26543;51.976;4.616;2023-08-01T00:02:00;52802.78;;;-140.72;100.00
38197;BME280;26543;51.976;4.616;2023-08-01T00:04:26;52784.53;;;-140.72;100.00
38197;BME280;26543;51.976;4.616;2023-08-01T00:06:51;52776.41;;;-140.72;100.00
38197;BME280;26543;51.976;4.616;2023-08-01T00:09:16;52817.00;;;-140.72;100.00
38197;BME280;26543;51.976;4.616;2023-08-01T00:11:41;52784.53;;;-140.72;100.00
38197;BME280;26543;51.976;4.616;2023-08-01T00:14:07;52798.72;;;-140.72;100.00
38197;BME280;26543;51.976;4.616;2023-08-01T00:16:32;52780.47;;;-140.72;100.00
38197;BME280;26543;51.976;4.616;2023-08-01T00:18:57;52764.25;;;-140.72;100.00
38197;BME280;26543;51.976;4.616;2023-08-01T00:21:22;52784.53;;;-140.72;100.00
38197;BME280;26543;51.976;4.616;2023-08-01T00:23:48;52808.88;;;-140.72;100.00
38197;BME280;26543;51.976;4.616;2023-08-01T00:26:13;52784.53;;;-140.72;100.00
38197;BME280;26543;51.976;4.616;2023-08-01T00:28:38;52768.28;;;-140.72;100.00
38197;BME280;26543;51.976;4.616;2023-08-01T00:31:04;52810.91;;;-140.72;100.00
38197;BME280;26543;51.976;4.616;2023-08-01T00:33:30;52790.63;;;-140.72;100.00
38197;BME280;26543;51.976;4.616;2023-08-01T00:35:55;52835.25;;;-140.72;100.00
38197;BME280;26543;51.976;4.616;2023-08-01T00:38:20;52843.38;;;-140.72;100.00
38197;BME280;26543;51.976;4.616;2023-08-01T00:40:45;52790.63;;;-140.72;100.00
38197;BME280;26543;51.976;4.616;2023-08-01T00:43:11;52812.94;;;-140.72;100.00
38197;BME280;26543;51.976;4.616;2023-08-01T00:45:37;52784.53;;;-140.72;100.00
38197;BME280;26543;51.976;4.616;2023-08-01T00:48:02;52804.81;;;-140.72;100.00
38197;BME280;26543;51.976;4.616;2023-08-01T00:50:27;52798.72;;;-140.72;100.00
38197;BME280;26543;51.976;4.616;2023-08-01T00:52:53;52817.00;;;-140.72;100.00
38197;BME280;26543;51.976;4.616;2023-08-01T00:55:18;52812.94;;;-140.72;100.00
38197;BME280;26543;51.976;4.616;2023-08-01T00:57:44;52798.72;;;-140.72;100.00
38197;BME280;26543;51.976;4.616;2023-08-01T01:00:09;52794.69;;;-140.72;100.00
38197;BME280;26543;51.976;4.616;2023-08-01T01:02:35;52800.75;;;-140.72;100.00
38197;BME280;26543;51.976;4.616;2023-08-01T01:05:01;52835.25;;;-140.72;100.00
38197;BME280;26543;51.976;4.616;2023-08-01T01:07:27;52796.72;;;-140.72;100.00
38197;BME280;26543;51.976;4.616;2023-08-01T01:09:53;52780.47;;;-140.72;100.00
38197;BME280;26543;51.976;4.616;2023-08-01T01:12:18;52810.91;;;-140.72;100.00
38197;BME280;26543;51.976;4.616;2023-08-01T01:14:43;52768.28;;;-140.72;100.00
38197;BME280;26543;51.976;4.616;2023-08-01T01:17:08;52806.84;;;-140.72;100.00
38197;BME280;26543;51.976;4.616;2023-08-01T01:19:34;52788.59;;;-140.72;100.00
38197;BME280;26543;51.976;4.616;2023-08-01T01:21:59;52819.03;;;-140.72;100.00
38197;BME280;26543;51.976;4.616;2023-08-01T01:24:24;52819.03;;;-140.72;100.00
38197;BME280;26543;51.976;4.616;2023-08-01T01:26:51;52833.22;;;-140.72;100.00
38197;BME280;26543;51.976;4.616;2023-08-01T01:29:17;52780.47;;;-140.72;100.00
38197;BME280;26543;51.976;4.616;2023-08-01T01:31:43;52796.72;;;-140.72;100.00
38197;BME280;26543;51.976;4.616;2023-08-01T01:34:08;52817.00;;;-140.72;100.00
38197;BME280;26543;51.976;4.616;2023-08-01T01:36:34;52776.41;;;-140.72;100.00
38197;BME280;26543;51.976;4.616;2023-08-01T01:38:59;52788.59;;;-140.72;100.00
38197;BME280;26543;51.976;4.616;2023-08-01T01:41:26;52768.28;;;-140.72;100.00
38197;BME280;26543;51.976;4.616;2023-08-01T01:43:51;52817.00;;;-140.72;100.00
38197;BME280;26543;51.976;4.616;2023-08-01T01:46:17;52812.94;;;-140.72;100.00
38197;BME280;26543;51.976;4.616;2023-08-01T01:48:42;52776.41;;;-140.72;100.00
38197;BME280;26543;51.976;4.616;2023-08-01T01:51:07;52788.59;;;-140.72;100.00
38197;BME280;26543;51.976;4.616;2023-08-01T01:53:32;52812.94;;;-140.72;100.00
38197;BME280;26543;51.976;4.616;2023-08-01T01:55:58;52796.72;;;-140.72;100.00
38197;BME280;26543;51.976;4.616;2023-08-01T01:58:23;52808.88;;;-140.72;100.00
38197;BME280;26543;51.976;4.616;2023-08-01T02:00:48;52770.31;;;-140.72;100.00
38197;BME280;26543;51.976;4.616;2023-08-01T02:03:14;52833.22;;;-140.72;100.00
38197;BME280;26543;51.976;4.616;2023-08-01T02:05:39;52798.72;;;-140.72;100.00
38197;BME280;26543;51.976;4.616;2023-08-01T02:08:05;52790.63;;;-140.72;100.00
38197;BME280;26543;51.976;4.616;2023-08-01T02:10:30;52823.09;;;-140.72;100.00
38197;BME280;26543;51.976;4.616;2023-08-01T02:12:55;52794.69;;;-140.72;100.00
38197;BME280;26543;51.976;4.616;2023-08-01T02:15:21;52780.47;;;-140.72;100.00
38197;BME280;26543;51.976;4.616;2023-08-01T02:17:46;52752.06;;;-140.72;100.00
38197;BME280;26543;51.976;4.616;2023-08-01T02:20:11;52810.91;;;-140.72;100.00
38197;BME280;26543;51.976;4.616;2023-08-01T02:22:36;52764.25;;;-140.72;100.00
38197;BME280;26543;51.976;4.616;2023-08-01T02:25:02;52831.19;;;-140.72;100.00
38197;BME280;26543;51.976;4.616;2023-08-01T02:27:27;52800.75;;;-140.72;100.00
38197;BME280;26543;51.976;4.616;2023-08-01T02:29:52;52808.88;;;-140.72;100.00
38197;BME280;26543;51.976;4.616;2023-08-01T02:32:17;52823.09;;;-140.72;100.00
38197;BME280;26543;51.976;4.616;2023-08-01T02:34:43;52804.81;;;-140.72;100.00
38197;BME280;26543;51.976;4.616;2023-08-01T02:37:08;52806.84;;;-140.72;100.00
38197;BME280;26543;51.976;4.616;2023-08-01T02:39:34;52814.97;;;-140.72;100.00
38197;BME280;26543;51.976;4.616;2023-08-01T02:42:00;52802.78;;;-140.72;100.00
38197;BME280;26543;51.976;4.616;2023-08-01T02:44:25;52821.06;;;-140.72;100.00
38197;BME280;26543;51.976;4.616;2023-08-01T02:46:51;52800.75;;;-140.72;100.00
38197;BME280;26543;51.976;4.616;2023-08-01T02:49:16;52800.75;;;-140.72;100.00
38197;BME280;26543;51.976;4.616;2023-08-01T02:51:41;52817.00;;;-140.72;100.00
38197;BME280;26543;51.976;4.616;2023-08-01T02:54:06;52776.41;;;-140.72;100.00
38197;BME280;26543;51.976;4.616;2023-08-01T02:56:31;52823.09;;;-140.72;100.00
38197;BME280;26543;51.976;4.616;2023-08-01T02:58:57;52823.09;;;-140.72;100.00
38197;BME280;26543;51.976;4.616;2023-08-01T03:01:22;52814.97;;;-140.72;100.00
38197;BME280;26543;51.976;4.616;2023-08-01T03:03:48;52806.84;;;-140.72;100.00
38197;BME280;26543;51.976;4.616;2023-08-01T03:06:15;52788.59;;;-140.72;100.00
38197;BME280;26543;51.976;4.616;2023-08-01T03:08:41;52792.66;;;-140.72;100.00
38197;BME280;26543;51.976;4.616;2023-08-01T03:11:06;52812.94;;;-140.72;100.00
38197;BME280;26543;51.976;4.616;2023-08-01T03:13:31;52821.06;;;-140.72;100.00
38197;BME280;26543;51.976;4.616;2023-08-01T03:15:56;52821.06;;;-140.72;100.00
38197;BME280;26543;51.976;4.616;2023-08-01T03:18:22;52792.66;;;-140.72;100.00
38197;BME280;26543;51.976;4.616;2023-08-01T03:20:47;52817.00;;;-140.72;100.00
38197;BME280;26543;51.976;4.616;2023-08-01T03:23:12;52825.13;;;-140.72;100.00
38197;BME280;26543;51.976;4.616;2023-08-01T03:25:37;52831.19;;;-140.72;100.00
38197;BME280;26543;51.976;4.616;2023-08-01T03:28:03;52819.03;;;-140.72;100.00
38197;BME280;26543;51.976;4.616;2023-08-01T03:30:29;52790.63;;;-140.72;100.00
38197;BME280;26543;51.976;4.616;2023-08-01T03:32:54;52812.94;;;-140.72;100.00
38197;BME280;26543;51.976;4.616;2023-08-01T03:35:19;52812.94;;;-140.72;100.00
38197;BME280;26543;51.976;4.616;2023-08-01T03:37:45;52800.75;;;-140.72;100.00
38197;BME280;26543;51.976;4.616;2023-08-01T03:40:10;52825.13;;;-140.72;100.00
38197;BME280;26543;51.976;4.616;2023-08-01T03:42:35;52788.59;;;-140.72;100.00
38197;BME280;26543;51.976;4.616;2023-08-01T03:45:01;52817.00;;;-140.72;100.00
38197;BME280;26543;51.976;4.616;2023-08-01T03:47:26;52859.63;;;-140.72;100.00
38197;BME280;26543;51.976;4.616;2023-08-01T03:49:51;52837.28;;;-140.72;100.00
38197;BME280;26543;51.976;4.616;2023-08-01T03:52:16;52790.63;;;-140.72;100.00
38197;BME280;26543;51.976;4.616;2023-08-01T03:54:42;52817.00;;;-140.72;100.00
38197;BME280;26543;51.976;4.616;2023-08-01T03:57:07;52855.56;;;-140.72;100.00
38197;BME280;26543;51.976;4.616;2023-08-01T03:59:32;52798.72;;;-140.72;100.00
38197;BME280;26543;51.976;4.616;2023-08-01T04:01:57;52849.47;;;-140.72;100.00
38197;BME280;26543;51.976;4.616;2023-08-01T04:04:23;52798.72;;;-140.72;100.00
38197;BME280;26543;51.976;4.616;2023-08-01T04:06:48;52772.34;;;-140.72;100.00
38197;BME280;26543;51.976;4.616;2023-08-01T04:09:13;52812.94;;;-140.72;100.00
38197;BME280;26543;51.976;4.616;2023-08-01T04:11:38;52788.59;;;-140.72;100.00
38197;BME280;26543;51.976;4.616;2023-08-01T04:14:04;52810.91;;;-140.72;100.00
38197;BME280;26543;51.976;4.616;2023-08-01T04:16:29;52827.16;;;-140.72;100.00
38197;BME280;26543;51.976;4.616;2023-08-01T04:18:54;52796.72;;;-140.72;100.00
38197;BME280;26543;51.976;4.616;2023-08-01T04:21:20;52808.88;;;-140.72;100.00
38197;BME280;26543;51.976;4.616;2023-08-01T04:23:45;52827.16;;;-140.72;100.00
38197;BME280;26543;51.976;4.616;2023-08-01T04:26:10;52804.81;;;-140.72;100.00
38197;BME280;26543;51.976;4.616;2023-08-01T04:28:35;52800.75;;;-140.72;100.00
38197;BME280;26543;51.976;4.616;2023-08-01T04:31:01;52802.78;;;-140.72;100.00
38197;BME280;26543;51.976;4.616;2023-08-01T04:33:26;52875.84;;;-140.72;100.00
38197;BME280;26543;51.976;4.616;2023-08-01T04:35:51;52800.75;;;-140.72;100.00
38197;BME280;26543;51.976;4.616;2023-08-01T04:38:17;52812.94;;;-140.72;100.00
38197;BME280;26543;51.976;4.616;2023-08-01T04:40:42;52835.25;;;-140.72;100.00
38197;BME280;26543;51.976;4.616;2023-08-01T04:43:07;52823.09;;;-140.72;100.00
38197;BME280;26543;51.976;4.616;2023-08-01T04:45:33;52845.41;;;-140.72;100.00
38197;BME280;26543;51.976;4.616;2023-08-01T04:47:58;52829.19;;;-140.72;100.00
38197;BME280;26543;51.976;4.616;2023-08-01T04:50:23;52843.38;;;-140.72;100.00
38197;BME280;26543;51.976;4.616;2023-08-01T04:52:48;52825.13;;;-140.72;100.00
38197;BME280;26543;51.976;4.616;2023-08-01T04:55:14;52794.69;;;-140.72;100.00
38197;BME280;26543;51.976;4.616;2023-08-01T04:57:39;52802.78;;;-140.72;100.00
38197;BME280;26543;51.976;4.616;2023-08-01T05:00:05;52821.06;;;-140.72;100.00
38197;BME280;26543;51.976;4.616;2023-08-01T05:02:30;52847.44;;;-140.72;100.00
38197;BME280;26543;51.976;4.616;2023-08-01T05:04:55;52833.22;;;-140.72;100.00
38197;BME280;26543;51.976;4.616;2023-08-01T05:07:21;52821.06;;;-140.72;100.00
38197;BME280;26543;51.976;4.616;2023-08-01T05:09:46;52808.88;;;-140.72;100.00
38197;BME280;26543;51.976;4.616;2023-08-01T05:12:11;52806.84;;;-140.72;100.00
38197;BME280;26543;51.976;4.616;2023-08-01T05:14:36;52792.66;;;-140.72;100.00
38197;BME280;26543;51.976;4.616;2023-08-01T05:17:02;52865.69;;;-140.72;100.00
38197;BME280;26543;51.976;4.616;2023-08-01T05:19:27;52823.09;;;-140.72;100.00
38197;BME280;26543;51.976;4.616;2023-08-01T05:21:52;52798.72;;;-140.72;100.00
38197;BME280;26543;51.976;4.616;2023-08-01T05:24:17;52817.00;;;-140.72;100.00
38197;BME280;26543;51.976;4.616;2023-08-01T05:26:42;52790.63;;;-140.72;100.00
38197;BME280;26543;51.976;4.616;2023-08-01T05:29:08;52788.59;;;-140.72;100.00
38197;BME280;26543;51.976;4.616;2023-08-01T05:31:33;52829.19;;;-140.72;100.00
38197;BME280;26543;51.976;4.616;2023-08-01T05:33:58;52837.28;;;-140.72;100.00
38197;BME280;26543;51.976;4.616;2023-08-01T05:36:23;52804.81;;;-140.72;100.00
38197;BME280;26543;51.976;4.616;2023-08-01T05:38:49;52819.03;;;-140.72;100.00
38197;BME280;26543;51.976;4.616;2023-08-01T05:41:14;52800.75;;;-140.72;100.00
38197;BME280;26543;51.976;4.616;2023-08-01T05:43:39;52845.41;;;-140.72;100.00
38197;BME280;26543;51.976;4.616;2023-08-01T05:46:04;52847.44;;;-140.72;100.00
38197;BME280;26543;51.976;4.616;2023-08-01T05:48:30;52782.50;;;-140.72;100.00
38197;BME280;26543;51.976;4.616;2023-08-01T05:50:55;52812.94;;;-140.72;100.00
38197;BME280;26543;51.976;4.616;2023-08-01T05:53:21;52831.19;;;-140.72;100.00
38197;BME280;26543;51.976;4.616;2023-08-01T05:55:46;52810.91;;;-140.72;100.00
38197;BME280;26543;51.976;4.616;2023-08-01T05:58:11;52861.66;;;-140.72;100.00
38197;BME280;26543;51.976;4.616;2023-08-01T06:00:36;52808.88;;;-140.72;100.00
38197;BME280;26543;51.976;4.616;2023-08-01T06:03:02;52792.66;;;-140.72;100.00
38197;BME280;26543;51.976;4.616;2023-08-01T06:05:27;52778.44;;;-140.72;100.00
38197;BME280;26543;51.976;4.616;2023-08-01T06:07:53;52786.56;;;-140.72;100.00
38197;BME280;26543;51.976;4.616;2023-08-01T06:10:18;52784.53;;;-140.72;100.00
38197;BME280;26543;51.976;4.616;2023-08-01T06:12:43;52764.25;;;-140.72;100.00
38197;BME280;26543;51.976;4.616;2023-08-01T06:15:08;52758.16;;;-140.72;100.00
38197;BME280;26543;51.976;4.616;2023-08-01T06:17:34;52776.41;;;-140.72;100.00
38197;BME280;26543;51.976;4.616;2023-08-01T06:19:59;52768.28;;;-140.72;100.00
38197;BME280;26543;51.976;4.616;2023-08-01T06:22:24;52766.25;;;-140.72;100.00
38197;BME280;26543;51.976;4.616;2023-08-01T06:24:49;52735.81;;;-140.72;100.00
38197;BME280;26543;51.976;4.616;2023-08-01T06:27:15;52739.88;;;-140.72;100.00
38197;BME280;26543;51.976;4.616;2023-08-01T06:29:40;52768.28;;;-140.72;100.00
38197;BME280;26543;51.976;4.616;2023-08-01T06:32:05;52741.91;;;-140.72;100.00
38197;BME280;26543;51.976;4.616;2023-08-01T06:34:31;52768.28;;;-140.72;100.00
38197;BME280;26543;51.976;4.616;2023-08-01T06:36:56;52748.00;;;-140.72;100.00
38197;BME280;26543;51.976;4.616;2023-08-01T06:39:21;52715.53;;;-140.72;100.00
38197;BME280;26543;51.976;4.616;2023-08-01T06:41:46;52760.19;;;-140.72;100.00
38197;BME280;26543;51.976;4.616;2023-08-01T06:44:12;52762.22;;;-140.72;100.00
38197;BME280;26543;51.976;4.616;2023-08-01T06:46:37;52745.97;;;-140.72;100.00
38197;BME280;26543;51.976;4.616;2023-08-01T06:49:02;52762.22;;;-140.72;100.00
38197;BME280;26543;51.976;4.616;2023-08-01T06:51:27;52727.72;;;-140.72;100.00
38197;BME280;26543;51.976;4.616;2023-08-01T06:53:53;52739.88;;;-140.72;100.00
38197;BME280;26543;51.976;4.616;2023-08-01T06:56:18;52784.53;;;-140.72;100.00
38197;BME280;26543;51.976;4.616;2023-08-01T06:58:43;52772.34;;;-140.72;100.00
38197;BME280;26543;51.976;4.616;2023-08-01T07:01:08;52810.91;;;-140.72;100.00
38197;BME280;26543;51.976;4.616;2023-08-01T07:03:34;52729.75;;;-140.72;100.00
38197;BME280;26543;51.976;4.616;2023-08-01T07:05:59;52780.47;;;-140.72;100.00
38197;BME280;26543;51.976;4.616;2023-08-01T07:08:24;52772.34;;;-140.72;100.00
38197;BME280;26543;51.976;4.616;2023-08-01T07:10:49;52796.72;;;-140.72;100.00
38197;BME280;26543;51.976;4.616;2023-08-01T07:13:14;52731.75;;;-140.72;100.00
38197;BME280;26543;51.976;4.616;2023-08-01T07:15:41;52766.25;;;-140.72;100.00
38197;BME280;26543;51.976;4.616;2023-08-01T07:18:06;52770.31;;;-140.72;100.00
38197;BME280;26543;51.976;4.616;2023-08-01T07:20:31;52719.59;;;-140.72;100.00
38197;BME280;26543;51.976;4.616;2023-08-01T07:22:56;52752.06;;;-140.72;100.00
38197;BME280;26543;51.976;4.616;2023-08-01T07:25:22;52715.53;;;-140.72;100.00
38197;BME280;26543;51.976;4.616;2023-08-01T07:27:47;52735.81;;;-140.72;100.00
38197;BME280;26543;51.976;4.616;2023-08-01T07:30:12;52709.44;;;-140.72;100.00
38197;BME280;26543;51.976;4.616;2023-08-01T07:32:38;52743.94;;;-140.72;100.00
38197;BME280;26543;51.976;4.616;2023-08-01T07:35:06;52660.75;;;-140.72;100.00
38197;BME280;26543;51.976;4.616;2023-08-01T07:37:33;52723.66;;;-140.72;100.00
38197;BME280;26543;51.976;4.616;2023-08-01T07:39:58;52727.72;;;-140.72;100.00
38197;BME280;26543;51.976;4.616;2023-08-01T07:42:23;52699.31;;;-140.72;100.00
38197;BME280;26543;51.976;4.616;2023-08-01T07:44:48;52705.38;;;-140.72;100.00
38197;BME280;26543;51.976;4.616;2023-08-01T07:47:14;52711.47;;;-140.72;100.00
38197;BME280;26543;51.976;4.616;2023-08-01T07:49:39;52679.00;;;-140.72;100.00
38197;BME280;26543;51.976;4.616;2023-08-01T07:52:04;52687.13;;;-140.72;100.00
38197;BME280;26543;51.976;4.616;2023-08-01T07:54:29;52703.34;;;-140.72;100.00
38197;BME280;26543;51.976;4.616;2023-08-01T07:56:55;52731.75;;;-140.72;100.00
38197;BME280;26543;51.976;4.616;2023-08-01T07:59:20;52691.19;;;-140.72;100.00
38197;BME280;26543;51.976;4.616;2023-08-01T08:01:45;52695.25;;;-140.72;100.00
38197;BME280;26543;51.976;4.616;2023-08-01T08:04:11;52685.09;;;-140.72;100.00
38197;BME280;26543;51.976;4.616;2023-08-01T08:06:36;52672.91;;;-140.72;100.00
38197;BME280;26543;51.976;4.616;2023-08-01T08:09:01;52676.97;;;-140.72;100.00
38197;BME280;26543;51.976;4.616;2023-08-01T08:11:26;52685.09;;;-140.72;100.00
38197;BME280;26543;51.976;4.616;2023-08-01T08:13:52;52652.63;;;-140.72;100.00
38197;BME280;26543;51.976;4.616;2023-08-01T08:16:17;52632.34;;;-140.72;100.00
38197;BME280;26543;51.976;4.616;2023-08-01T08:18:42;52662.78;;;-140.72;100.00
38197;BME280;26543;51.976;4.616;2023-08-01T08:21:07;52638.41;;;-140.72;100.00
38197;BME280;26543;51.976;4.616;2023-08-01T08:23:33;52642.47;;;-140.72;100.00
38197;BME280;26543;51.976;4.616;2023-08-01T08:25:58;52591.75;;;-140.72;100.00
38197;BME280;26543;51.976;4.616;2023-08-01T08:28:29;52620.16;;;-140.72;100.00
38197;BME280;26543;51.976;4.616;2023-08-01T08:30:55;52642.47;;;-140.72;100.00
38197;BME280;26543;51.976;4.616;2023-08-01T08:33:21;52654.66;;;-140.72;100.00
38197;BME280;26543;51.976;4.616;2023-08-01T08:35:46;52693.22;;;-140.72;100.00
38197;BME280;26543;51.976;4.616;2023-08-01T08:38:11;52731.75;;;-140.72;100.00
38197;BME280;26543;51.976;4.616;2023-08-01T08:40:37;52721.63;;;-140.72;100.00
38197;BME280;26543;51.976;4.616;2023-08-01T08:43:06;52715.53;;;-140.72;100.00
38197;BME280;26543;51.976;4.616;2023-08-01T08:45:34;52695.25;;;-140.72;100.00
38197;BME280;26543;51.976;4.616;2023-08-01T08:48:01;52711.47;;;-140.72;100.00
38197;BME280;26543;51.976;4.616;2023-08-01T08:50:27;52646.53;;;-140.72;100.00
38197;BME280;26543;51.976;4.616;2023-08-01T08:52:54;52616.09;;;-140.72;100.00
38197;BME280;26543;51.976;4.616;2023-08-01T08:55:19;52636.38;;;-140.72;100.00
38197;BME280;26543;51.976;4.616;2023-08-01T08:57:48;52640.44;;;-140.72;100.00
38197;BME280;26543;51.976;4.616;2023-08-01T09:00:16;52638.41;;;-140.72;100.00
38197;BME280;26543;51.976;4.616;2023-08-01T09:02:41;52601.91;;;-140.72;100.00
38197;BME280;26543;51.976;4.616;2023-08-01T09:05:07;52597.84;;;-140.72;100.00
38197;BME280;26543;51.976;4.616;2023-08-01T09:07:33;52595.81;;;-140.72;100.00
38197;BME280;26543;51.976;4.616;2023-08-01T09:09:59;52530.88;;;-140.72;100.00
38197;BME280;26543;51.976;4.616;2023-08-01T09:12:24;52607.97;;;-140.72;100.00
38197;BME280;26543;51.976;4.616;2023-08-01T09:14:50;52646.53;;;-140.72;100.00
38197;BME280;26543;51.976;4.616;2023-08-01T09:17:16;52614.06;;;-140.72;100.00
38197;BME280;26543;51.976;4.616;2023-08-01T09:19:43;52610.00;;;-140.72;100.00
38197;BME280;26543;51.976;4.616;2023-08-01T09:22:12;52642.47;;;-140.72;100.00
38197;BME280;26543;51.976;4.616;2023-08-01T09:24:37;52569.44;;;-140.72;100.00
38197;BME280;26543;51.976;4.616;2023-08-01T09:27:03;52603.94;;;-140.72;100.00
38197;BME280;26543;51.976;4.616;2023-08-01T09:29:29;52628.28;;;-140.72;100.00
38197;BME280;26543;51.976;4.616;2023-08-01T09:31:56;52593.78;;;-140.72;100.00
38197;BME280;26543;51.976;4.616;2023-08-01T09:34:23;52524.78;;;-140.72;100.00
38197;BME280;26543;51.976;4.616;2023-08-01T09:36:49;52484.19;;;-140.72;100.00
38197;BME280;26543;51.976;4.616;2023-08-01T09:39:18;52547.09;;;-140.72;100.00
38197;BME280;26543;51.976;4.616;2023-08-01T09:41:44;52551.16;;;-140.72;79.86
38197;BME280;26543;51.976;4.616;2023-08-01T09:44:15;52575.50;;;-140.72;88.82
38197;BME280;26543;51.976;4.616;2023-08-01T09:46:41;52504.50;;;-140.72;100.00
38197;BME280;26543;51.976;4.616;2023-08-01T09:49:10;52514.63;;;-140.72;60.18
38197;BME280;26543;51.976;4.616;2023-08-01T09:51:57;52484.19;;;-140.72;24.16
38197;BME280;26543;51.976;4.616;2023-08-01T09:54:22;52472.03;;;-140.72;0.00
38197;BME280;26543;51.976;4.616;2023-08-01T09:56:48;52429.41;;;-140.72;0.00
38197;BME280;26543;51.976;4.616;2023-08-01T09:59:16;52413.19;;;-140.72;0.00
38197;BME280;26543;51.976;4.616;2023-08-01T10:01:43;52411.16;;;-140.72;0.00
38197;BME280;26543;51.976;4.616;2023-08-01T10:04:09;52390.84;;;-140.72;0.00
38197;BME280;26543;51.976;4.616;2023-08-01T10:06:37;52490.28;;;-140.72;0.00
38197;BME280;26543;51.976;4.616;2023-08-01T10:09:02;52486.22;;;-140.72;0.00
38197;BME280;26543;51.976;4.616;2023-08-01T10:11:28;52528.84;;;-140.72;0.00
38197;BME280;26543;51.976;4.616;2023-08-01T10:13:55;52488.25;;;-140.72;0.00
38197;BME280;26543;51.976;4.616;2023-08-01T10:16:20;52451.72;;;-140.72;0.00
38197;BME280;26543;51.976;4.616;2023-08-01T10:18:46;52374.63;;;-140.72;0.00
38197;BME280;26543;51.976;4.616;2023-08-01T10:21:13;52425.34;;;-140.72;0.00
38197;BME280;26543;51.976;4.616;2023-08-01T10:23:38;52419.28;;;-140.72;0.00
38197;BME280;26543;51.976;4.616;2023-08-01T10:26:05;52435.50;;;-140.72;0.00
38197;BME280;26543;51.976;4.616;2023-08-01T10:28:34;52299.56;;;-140.72;0.00
38197;BME280;26543;51.976;4.616;2023-08-01T10:31:12;52530.88;;;-140.72;0.00
38197;BME280;26543;51.976;4.616;2023-08-01T10:33:38;52415.22;;;-140.72;0.00
38197;BME280;26543;51.976;4.616;2023-08-01T10:36:12;52490.28;;;-140.72;0.00
38197;BME280;26543;51.976;4.616;2023-08-01T10:38:44;52492.31;;;-140.72;0.00
38197;BME280;26543;51.976;4.616;2023-08-01T10:41:17;52392.88;;;-140.72;0.00
38197;BME280;26543;51.976;4.616;2023-08-01T10:43:43;52372.59;;;-140.72;0.00
38197;BME280;26543;51.976;4.616;2023-08-01T10:46:08;52549.13;;;-140.72;0.00
38197;BME280;26543;51.976;4.616;2023-08-01T10:48:34;52384.78;;;-140.72;0.00
38197;BME280;26543;51.976;4.616;2023-08-01T10:50:59;52496.38;;;-140.72;0.00
38197;BME280;26543;51.976;4.616;2023-08-01T10:53:24;52551.16;;;-140.72;0.00
38197;BME280;26543;51.976;4.616;2023-08-01T10:55:49;52589.72;;;-140.72;0.00
38197;BME280;26543;51.976;4.616;2023-08-01T10:58:15;52642.47;;;-140.72;0.00
38197;BME280;26543;51.976;4.616;2023-08-01T11:00:43;52685.09;;;-140.72;100.00
38197;BME280;26543;51.976;4.616;2023-08-01T11:03:09;52693.22;;;-140.72;100.00
38197;BME280;26543;51.976;4.616;2023-08-01T11:05:34;52676.97;;;-140.72;100.00
38197;BME280;26543;51.976;4.616;2023-08-01T11:08:00;52654.66;;;-140.72;100.00
38197;BME280;26543;51.976;4.616;2023-08-01T11:10:26;52713.50;;;-140.72;100.00
38197;BME280;26543;51.976;4.616;2023-08-01T11:12:51;52711.47;;;-140.72;100.00
38197;BME280;26543;51.976;4.616;2023-08-01T11:15:18;52674.94;;;-140.72;100.00
38197;BME280;26543;51.976;4.616;2023-08-01T11:17:47;52683.06;;;-140.72;100.00
38197;BME280;26543;51.976;4.616;2023-08-01T11:20:13;52689.16;;;-140.72;100.00
38197;BME280;26543;51.976;4.616;2023-08-01T11:22:48;52666.84;;;-140.72;100.00
38197;BME280;26543;51.976;4.616;2023-08-01T11:25:14;52697.28;;;-140.72;100.00
38197;BME280;26543;51.976;4.616;2023-08-01T11:27:39;52697.28;;;-140.72;100.00
38197;BME280;26543;51.976;4.616;2023-08-01T11:30:04;52676.97;;;-140.72;100.00
38197;BME280;26543;51.976;4.616;2023-08-01T11:32:33;52632.34;;;-140.72;100.00
38197;BME280;26543;51.976;4.616;2023-08-01T11:34:59;52480.16;;;-140.72;100.00
38197;BME280;26543;51.976;4.616;2023-08-01T11:37:25;52390.84;;;-140.72;100.00
38197;BME280;26543;51.976;4.616;2023-08-01T11:39:51;52261.00;;;-140.72;0.00
38197;BME280;26543;51.976;4.616;2023-08-01T11:42:16;52321.88;;;-140.72;0.00
38197;BME280;26543;51.976;4.616;2023-08-01T11:44:42;52311.72;;;-140.72;0.00
38197;BME280;26543;51.976;4.616;2023-08-01T11:47:11;52224.47;;;-140.72;0.00
38197;BME280;26543;51.976;4.616;2023-08-01T11:49:37;52362.44;;;-140.72;0.00
38197;BME280;26543;51.976;4.616;2023-08-01T11:52:02;52461.88;;;-140.72;0.00
38197;BME280;26543;51.976;4.616;2023-08-01T11:54:27;52557.25;;;-140.72;0.00
38197;BME280;26543;51.976;4.616;2023-08-01T11:56:59;52591.75;;;-140.72;0.00
38197;BME280;26543;51.976;4.616;2023-08-01T11:59:25;52465.94;;;-140.72;0.00
38197;BME280;26543;51.976;4.616;2023-08-01T12:01:50;52488.25;;;-140.72;0.00
38197;BME280;26543;51.976;4.616;2023-08-01T12:04:25;52488.25;;;-140.72;0.00
38197;BME280;26543;51.976;4.616;2023-08-01T12:06:51;52443.63;;;-140.72;0.00
38197;BME280;26543;51.976;4.616;2023-08-01T12:09:16;52500.44;;;-140.72;0.00
38197;BME280;26543;51.976;4.616;2023-08-01T12:11:41;52565.38;;;-140.72;0.00
38197;BME280;26543;51.976;4.616;2023-08-01T12:14:16;52589.72;;;-140.72;0.00
38197;BME280;26543;51.976;4.616;2023-08-01T12:16:41;52589.72;;;-140.72;0.00
38197;BME280;26543;51.976;4.616;2023-08-01T12:19:09;52589.72;;;-140.72;0.00
38197;BME280;26543;51.976;4.616;2023-08-01T12:21:34;52630.31;;;-140.72;0.00
38197;BME280;26543;51.976;4.616;2023-08-01T12:24:00;52496.38;;;-140.72;30.28
38197;BME280;26543;51.976;4.616;2023-08-01T12:26:25;52539.00;;;-140.72;0.00